sensor_id;sensor_type;location;lat;lon;timestamp;P1;durP1;ratioP1;P2;durP2;ratioP2
63581;SDS011;49727;51.078;17.066;2022-11-15T00:12:46;59.85;;;33.38;;
63581;SDS011;49727;51.078;17.066;2022-11-15T00:27:47;62.90;;;34.83;;
63581;SDS011;49727;51.078;17.066;2022-11-15T00:42:47;60.30;;;33.33;;
63581;SDS011;49727;51.078;17.066;2022-11-15T00:57:48;60.72;;;32.33;;
63581;SDS011;49727;51.078;17.066;2022-11-15T01:12:48;59.22;;;30.67;;
63581;SDS011;49727;51.078;17.066;2022-11-15T01:27:49;61.58;;;31.20;;
63581;SDS011;49727;51.078;17.066;2022-11-15T01:42:51;63.60;;;30.35;;
63581;SDS011;49727;51.078;17.066;2022-11-15T01:57:53;55.03;;;28.73;;
63581;SDS011;49727;51.078;17.066;2022-11-15T02:12:56;59.90;;;31.87;;
63581;SDS011;49727;51.078;17.066;2022-11-15T02:44:21;61.80;;;29.45;;
63581;SDS011;49727;51.078;17.066;2022-11-15T02:59:23;55.97;;;27.85;;
63581;SDS011;49727;51.078;17.066;2022-11-15T03:14:40;50.58;;;26.95;;
63581;SDS011;49727;51.078;17.066;2022-11-15T03:29:59;51.78;;;28.30;;
63581;SDS011;49727;51.078;17.066;2022-11-15T04:00:14;62.65;;;29.55;;
63581;SDS011;49727;51.078;17.066;2022-11-15T04:15:17;57.58;;;28.60;;
63581;SDS011;49727;51.078;17.066;2022-11-15T04:30:19;61.17;;;28.08;;
63581;SDS011;49727;51.078;17.066;2022-11-15T04:45:19;50.88;;;26.15;;
63581;SDS011;49727;51.078;17.066;2022-11-15T05:00:20;60.33;;;27.33;;
63581;SDS011;49727;51.078;17.066;2022-11-15T05:15:20;57.15;;;27.75;;
63581;SDS011;49727;51.078;17.066;2022-11-15T05:30:21;51.28;;;26.52;;
63581;SDS011;49727;51.078;17.066;2022-11-15T05:45:21;52.90;;;25.75;;
63581;SDS011;49727;51.078;17.066;2022-11-15T06:00:22;48.55;;;25.88;;
63581;SDS011;49727;51.078;17.066;2022-11-15T06:15:23;52.00;;;27.23;;
63581;SDS011;49727;51.078;17.066;2022-11-15T06:30:24;48.97;;;27.02;;
63581;SDS011;49727;51.078;17.066;2022-11-15T06:45:25;58.85;;;32.30;;
63581;SDS011;49727;51.078;17.066;2022-11-15T07:00:26;58.10;;;30.35;;
63581;SDS011;49727;51.078;17.066;2022-11-15T07:15:26;52.97;;;27.85;;
63581;SDS011;49727;51.078;17.066;2022-11-15T07:30:27;48.55;;;27.15;;
63581;SDS011;49727;51.078;17.066;2022-11-15T07:45:28;43.13;;;26.08;;
63581;SDS011;49727;51.078;17.066;2022-11-15T08:00:29;40.78;;;25.42;;
63581;SDS011;49727;51.078;17.066;2022-11-15T08:15:30;45.20;;;26.10;;
63581;SDS011;49727;51.078;17.066;2022-11-15T08:30:34;37.47;;;24.27;;
63581;SDS011;49727;51.078;17.066;2022-11-15T08:45:36;31.50;;;22.27;;
63581;SDS011;49727;51.078;17.066;2022-11-15T09:00:37;31.67;;;21.33;;
63581;SDS011;49727;51.078;17.066;2022-11-15T09:15:37;26.65;;;21.05;;
63581;SDS011;49727;51.078;17.066;2022-11-15T09:30:38;30.27;;;20.98;;
63581;SDS011;49727;51.078;17.066;2022-11-15T10:00:48;29.23;;;21.70;;
63581;SDS011;49727;51.078;17.066;2022-11-15T10:15:53;27.47;;;20.43;;
63581;SDS011;49727;51.078;17.066;2022-11-15T10:45:59;22.77;;;17.03;;
63581;SDS011;49727;51.078;17.066;2022-11-15T11:01:26;20.03;;;16.10;;
63581;SDS011;49727;51.078;17.066;2022-11-15T12:01:58;9.90;;;8.33;;
63581;SDS011;49727;51.078;17.066;2022-11-15T12:17:14;11.67;;;9.23;;
63581;SDS011;49727;51.078;17.066;2022-11-15T12:32:25;11.57;;;8.20;;
63581;SDS011;49727;51.078;17.066;2022-11-15T12:47:26;9.63;;;7.00;;
63581;SDS011;49727;51.078;17.066;2022-11-15T13:02:40;10.20;;;8.37;;
63581;SDS011;49727;51.078;17.066;2022-11-15T13:32:49;12.93;;;10.73;;
63581;SDS011;49727;51.078;17.066;2022-11-15T13:47:53;14.50;;;12.37;;
63581;SDS011;49727;51.078;17.066;2022-11-15T14:03:04;15.87;;;12.43;;
63581;SDS011;49727;51.078;17.066;2022-11-15T14:33:46;14.40;;;11.13;;
63581;SDS011;49727;51.078;17.066;2022-11-15T14:48:47;17.73;;;13.10;;
63581;SDS011;49727;51.078;17.066;2022-11-15T15:03:47;24.23;;;13.73;;
63581;SDS011;49727;51.078;17.066;2022-11-15T15:18:48;22.25;;;14.20;;
63581;SDS011;49727;51.078;17.066;2022-11-15T15:33:48;25.45;;;15.38;;
63581;SDS011;49727;51.078;17.066;2022-11-15T15:48:49;26.17;;;15.63;;
63581;SDS011;49727;51.078;17.066;2022-11-15T16:03:49;38.67;;;19.75;;
63581;SDS011;49727;51.078;17.066;2022-11-15T16:18:49;44.58;;;24.08;;
63581;SDS011;49727;51.078;17.066;2022-11-15T16:33:50;55.05;;;29.10;;
63581;SDS011;49727;51.078;17.066;2022-11-15T16:48:51;52.70;;;28.05;;
63581;SDS011;49727;51.078;17.066;2022-11-15T17:03:53;51.97;;;28.23;;
63581;SDS011;49727;51.078;17.066;2022-11-15T17:18:54;65.57;;;33.83;;
63581;SDS011;49727;51.078;17.066;2022-11-15T17:33:54;59.50;;;30.80;;
63581;SDS011;49727;51.078;17.066;2022-11-15T17:48:55;49.15;;;28.02;;
63581;SDS011;49727;51.078;17.066;2022-11-15T18:03:57;42.60;;;26.33;;
63581;SDS011;49727;51.078;17.066;2022-11-15T18:18:59;51.73;;;26.53;;
63581;SDS011;49727;51.078;17.066;2022-11-15T18:34:00;49.63;;;27.10;;
63581;SDS011;49727;51.078;17.066;2022-11-15T18:49:01;57.03;;;26.98;;
63581;SDS011;49727;51.078;17.066;2022-11-15T19:04:03;61.23;;;32.07;;
63581;SDS011;49727;51.078;17.066;2022-11-15T19:19:12;70.93;;;41.37;;
63581;SDS011;49727;51.078;17.066;2022-11-15T19:34:14;59.47;;;36.30;;
63581;SDS011;49727;51.078;17.066;2022-11-15T19:49:15;66.80;;;37.33;;
63581;SDS011;49727;51.078;17.066;2022-11-15T20:04:15;75.18;;;39.38;;
63581;SDS011;49727;51.078;17.066;2022-11-15T20:19:16;77.68;;;39.35;;
63581;SDS011;49727;51.078;17.066;2022-11-15T20:34:16;71.13;;;42.30;;
63581;SDS011;49727;51.078;17.066;2022-11-15T20:49:17;73.22;;;42.45;;
63581;SDS011;49727;51.078;17.066;2022-11-15T21:04:17;74.93;;;41.67;;
63581;SDS011;49727;51.078;17.066;2022-11-15T21:19:18;69.88;;;38.58;;
63581;SDS011;49727;51.078;17.066;2022-11-15T21:34:18;72.57;;;42.17;;
63581;SDS011;49727;51.078;17.066;2022-11-15T21:49:19;77.18;;;42.13;;
63581;SDS011;49727;51.078;17.066;2022-11-15T22:04:21;75.40;;;44.07;;
63581;SDS011;49727;51.078;17.066;2022-11-15T22:19:23;70.97;;;40.67;;
63581;SDS011;49727;51.078;17.066;2022-11-15T22:34:23;79.28;;;43.97;;
63581;SDS011;49727;51.078;17.066;2022-11-15T22:49:23;76.03;;;43.42;;
63581;SDS011;49727;51.078;17.066;2022-11-15T23:04:24;85.75;;;48.45;;
63581;SDS011;49727;51.078;17.066;2022-11-15T23:19:24;84.88;;;49.55;;
63581;SDS011;49727;51.078;17.066;2022-11-15T23:34:25;87.80;;;51.47;;
63581;SDS011;49727;51.078;17.066;2022-11-15T23:49:26;85.47;;;49.78;;
